Time;durP1;ratioP1;P1;durP2;ratioP2;P2;SDS_P1;SDS_P2;PMS_P1;PMS_P2;Temp;Humidity;BMP_temperature;BMP_pressure;BME280_temperature;BME280_humidity;BME280_pressure;Samples;Min_cycle;Max_cycle;Signal;HPM_P1;HPM_P2
2023/01/19 00:00:04;;;;;;;17.52;8.00;;;;;;;;;;6146809;23;20113;-69
2023/01/19 00:02:38;;;;;;;23.45;8.70;;;;;;;;;;6146430;23;20040;-70
2023/01/19 00:05:05;;;;;;;24.65;9.70;;;;;;;;;;6146631;23;20080;-70
2023/01/19 00:07:33;;;;;;;23.80;10.20;;;;;;;;;;6145470;23;20071;-69
2023/01/19 00:10:06;;;;;;;28.30;9.70;;;;;;;;;;6148379;23;20053;-69
2023/01/19 00:12:33;;;;;;;;;;;;;;;;;;6147901;23;20053;-51
2023/01/19 00:15:07;;;;;;;27.88;9.73;;;;;;;;;;6146681;23;19916;-54
2023/01/19 00:17:35;;;;;;;;;;;;;;;;;;6147833;23;20025;-52
2023/01/19 00:20:08;;;;;;;28.83;11.15;;;;;;;;;;6150039;23;20270;-50
2023/01/19 00:22:42;;;;;;;27.42;11.73;;;;;;;;;;6147384;23;20407;-52
2023/01/19 00:25:09;;;;;;;40.28;13.88;;;;;;;;;;6149393;23;20546;-54
2023/01/19 00:27:48;;;;;;;27.63;11.20;;;;;;;;;;6148020;23;20117;-50
2023/01/19 00:30:15;;;;;;;30.08;11.32;;;;;;;;;;6147819;23;20063;-72
2023/01/19 00:32:42;;;;;;;35.03;12.82;;;;;;;;;;6148742;23;20021;-73
2023/01/19 00:35:16;;;;;;;32.08;13.43;;;;;;;;;;6149205;23;20017;-72
2023/01/19 00:37:44;;;;;;;40.00;14.57;;;;;;;;;;6147302;23;20872;-72
2023/01/19 00:40:18;;;;;;;35.40;13.40;;;;;;;;;;6149254;23;20108;-72
2023/01/19 00:42:47;;;;;;;45.45;15.75;;;;;;;;;;6148615;23;20108;-72
2023/01/19 00:45:22;;;;;;;43.70;15.55;;;;;;;;;;6148427;23;20033;-71
2023/01/19 00:47:55;;;;;;;30.15;12.70;;;;;;;;;;6148043;23;20104;-69
2023/01/19 00:50:30;;;;;;;32.47;12.68;;;;;;;;;;6148616;23;20414;-62
2023/01/19 00:53:01;;;;;;;40.35;14.75;;;;;;;;;;6148731;23;20432;-62
2023/01/19 00:55:30;;;;;;;40.65;14.38;;;;;;;;;;6149898;23;20036;-62
2023/01/19 00:58:05;;;;;;;37.95;14.40;;;;;;;;;;6147935;23;20101;-62
2023/01/19 01:00:32;;;;;;;37.50;14.43;;;;;;;;;;6147695;23;20441;-61
2023/01/19 01:03:06;;;;;;;48.35;15.30;;;;;;;;;;6147807;23;20025;-62
2023/01/19 01:05:34;;;;;;;41.35;14.15;;;;;;;;;;6148029;23;20029;-59
2023/01/19 01:08:01;;;;;;;31.00;13.38;;;;;;;;;;6146590;23;20021;-59
2023/01/19 01:10:34;;;;;;;41.78;14.00;;;;;;;;;;6148450;23;20371;-71
2023/01/19 01:13:01;;;;;;;32.50;13.75;;;;;;;;;;6147567;23;20025;-70
2023/01/19 01:15:50;;;;;;;38.70;14.48;;;;;;;;;;6148039;23;20045;-69
2023/01/19 01:18:25;;;;;;;37.13;13.45;;;;;;;;;;6148125;23;20100;-68
2023/01/19 01:21:01;;;;;;;37.42;14.35;;;;;;;;;;6148669;23;20686;-68
2023/01/19 01:23:35;;;;;;;44.10;14.05;;;;;;;;;;6148481;23;20017;-69
2023/01/19 01:26:09;;;;;;;40.53;13.52;;;;;;;;;;6148255;23;20064;-73
2023/01/19 01:28:36;;;;;;;43.90;16.35;;;;;;;;;;6147746;23;20021;-72
2023/01/19 01:31:03;;;;;;;32.08;14.50;;;;;;;;;;6148764;23;20100;-72
2023/01/19 01:33:37;;;;;;;42.75;15.60;;;;;;;;;;6147949;23;20048;-73
2023/01/19 01:36:08;;;;;;;41.47;14.70;;;;;;;;;;6148589;23;20022;-72
2023/01/19 01:38:42;;;;;;;41.60;15.00;;;;;;;;;;6147136;23;20068;-72
2023/01/19 01:41:09;;;;;;;42.60;16.40;;;;;;;;;;6147493;23;20262;-73
2023/01/19 01:43:44;;;;;;;37.17;14.23;;;;;;;;;;6148374;23;20089;-45
2023/01/19 01:46:18;;;;;;;38.22;15.10;;;;;;;;;;6147434;23;20021;-58
2023/01/19 01:48:49;;;;;;;39.22;13.88;;;;;;;;;;6147236;23;20029;-59
2023/01/19 01:51:42;;;;;;;39.38;14.13;;;;;;;;;;6148199;23;20026;-58
2023/01/19 01:54:24;;;;;;;46.58;15.20;;;;;;;;;;6147600;23;20407;-59
2023/01/19 01:57:03;;;;;;;40.95;13.63;;;;;;;;;;6148232;23;20025;-58
2023/01/19 01:59:37;;;;;;;45.55;16.42;;;;;;;;;;6147033;23;20113;-60
2023/01/19 02:05:03;;;;;;;40.85;15.73;;;;;;;;;;6147861;23;20017;-47
2023/01/19 02:13:34;;;;;;;43.55;15.82;;;;;;;;;;6147833;23;20502;-47
2023/01/19 02:16:03;;;;;;;48.35;15.90;;;;;;;;;;6147020;23;20339;-48
2023/01/19 02:18:44;;;;;;;49.45;16.88;;;;;;;;;;6146405;23;20045;-48
2023/01/19 02:21:18;;;;;;;39.30;15.98;;;;;;;;;;6146937;23;20072;-56
2023/01/19 02:23:53;;;;;;;44.22;16.17;;;;;;;;;;6123127;23;20022;-63
2023/01/19 02:26:23;;;;;;;53.20;16.08;;;;;;;;;;6147104;23;20057;-64
2023/01/19 02:28:53;;;;;;;55.03;16.58;;;;;;;;;;6146707;23;20538;-64
2023/01/19 02:31:27;;;;;;;42.15;15.52;;;;;;;;;;6148956;23;20025;-64
2023/01/19 02:33:55;;;;;;;44.17;16.10;;;;;;;;;;6147854;23;20052;-64
2023/01/19 02:36:38;;;;;;;56.95;19.20;;;;;;;;;;6146926;23;20396;-64
2023/01/19 02:39:12;;;;;;;48.55;17.83;;;;;;;;;;6146712;23;20032;-64
2023/01/19 02:41:39;;;;;;;;;;;;;;;;;;6147051;23;20053;-71
2023/01/19 02:44:07;;;;;;;46.78;16.75;;;;;;;;;;6148238;23;19991;-71
2023/01/19 02:46:41;;;;;;;52.03;18.77;;;;;;;;;;6147894;23;20502;-70
2023/01/19 02:49:08;;;;;;;48.00;19.08;;;;;;;;;;6146319;23;20031;-71
2023/01/19 02:51:43;;;;;;;50.58;18.70;;;;;;;;;;6148203;23;20113;-71
2023/01/19 02:54:22;;;;;;;44.60;17.85;;;;;;;;;;6148687;23;20448;-71
2023/01/19 02:56:56;;;;;;;51.88;19.05;;;;;;;;;;6146465;23;20021;-52
2023/01/19 02:59:38;;;;;;;42.28;17.27;;;;;;;;;;6147638;23;20496;-54
2023/01/19 03:02:12;;;;;;;54.92;18.52;;;;;;;;;;6147473;23;20470;-55
2023/01/19 03:04:55;;;;;;;54.80;19.15;;;;;;;;;;6147285;23;20083;-57
2023/01/19 03:07:34;;;;;;;62.30;20.20;;;;;;;;;;6147496;23;20673;-55
2023/01/19 03:10:15;;;;;;;62.63;20.88;;;;;;;;;;6147478;23;20086;-54
2023/01/19 03:13:07;;;;;;;63.97;21.05;;;;;;;;;;6147581;23;20043;-55
2023/01/19 03:15:49;;;;;;;61.35;21.80;;;;;;;;;;6145171;23;20136;-64
2023/01/19 03:18:31;;;;;;;59.15;21.00;;;;;;;;;;6145157;23;20531;-75
2023/01/19 03:21:00;;;;;;;66.95;20.13;;;;;;;;;;6145888;23;20049;-75
2023/01/19 03:23:35;;;;;;;54.03;18.67;;;;;;;;;;6147859;23;20451;-75
2023/01/19 03:26:04;;;;;;;56.55;20.25;;;;;;;;;;6146311;23;20104;-75
2023/01/19 03:28:31;;;;;;;51.33;18.90;;;;;;;;;;6120341;23;20031;-75
2023/01/19 03:31:09;;;;;;;70.10;20.75;;;;;;;;;;6146201;23;20321;-75
2023/01/19 03:33:37;;;;;;;66.07;22.48;;;;;;;;;;6147087;23;20025;-71
2023/01/19 03:36:15;;;;;;;56.72;21.13;;;;;;;;;;6147172;23;20021;-56
2023/01/19 03:38:43;;;;;;;79.53;25.33;;;;;;;;;;6147271;23;20063;-53
2023/01/19 03:41:12;;;;;;;61.85;21.77;;;;;;;;;;6146704;23;20018;-55
2023/01/19 03:43:48;;;;;;;64.75;22.05;;;;;;;;;;6148340;23;20021;-56
2023/01/19 03:46:22;;;;;;;72.78;23.05;;;;;;;;;;6146947;23;20100;-56
2023/01/19 03:48:50;;;;;;;63.45;22.75;;;;;;;;;;6146957;23;20029;-55
2023/01/19 03:51:18;;;;;;;;;;;;;;;;;;6147879;23;20035;-53
2023/01/19 03:53:52;;;;;;;60.13;20.63;;;;;;;;;;6149093;23;19920;-69
2023/01/19 03:56:21;;;;;;;67.78;22.92;;;;;;;;;;6148973;23;20092;-68
2023/01/19 03:58:54;;;;;;;69.13;23.50;;;;;;;;;;6150112;23;20038;-70
2023/01/19 04:01:23;;;;;;;71.95;24.02;;;;;;;;;;6149224;23;20128;-69
2023/01/19 04:03:57;;;;;;;67.68;23.92;;;;;;;;;;6148961;23;20896;-70
2023/01/19 04:06:25;;;;;;;66.60;23.20;;;;;;;;;;6148919;23;20462;-70
2023/01/19 04:08:52;;;;;;;70.88;24.38;;;;;;;;;;6148660;23;20439;-69
2023/01/19 04:11:26;;;;;;;66.75;23.42;;;;;;;;;;6148041;23;20109;-69
2023/01/19 04:13:53;;;;;;;62.55;22.77;;;;;;;;;;6150154;23;20021;-60
2023/01/19 04:16:41;;;;;;;56.28;21.05;;;;;;;;;;6148352;23;20084;-60
2023/01/19 04:19:15;;;;;;;70.97;22.60;;;;;;;;;;6148059;23;20076;-61
2023/01/19 04:21:49;;;;;;;70.00;23.58;;;;;;;;;;6149817;23;20372;-61
2023/01/19 04:24:17;;;;;;;69.03;22.02;;;;;;;;;;6149774;23;20388;-60
2023/01/19 04:26:44;;;;;;;76.32;23.95;;;;;;;;;;6146900;23;20502;-60
2023/01/19 04:29:18;;;;;;;67.85;21.10;;;;;;;;;;6149605;23;20359;-57
2023/01/19 04:31:45;;;;;;;56.83;20.52;;;;;;;;;;6148945;23;20084;-74
2023/01/19 04:34:19;;;;;;;63.30;19.15;;;;;;;;;;6147851;23;20105;-75
2023/01/19 04:36:49;;;;;;;65.72;21.08;;;;;;;;;;6148273;23;20060;-74
2023/01/19 04:39:17;;;;;;;65.35;21.40;;;;;;;;;;6149878;23;20032;-74
2023/01/19 04:41:51;;;;;;;69.22;22.27;;;;;;;;;;6147755;23;20410;-75
2023/01/19 04:44:18;;;;;;;69.13;20.48;;;;;;;;;;6148870;23;20022;-74
2023/01/19 04:46:52;;;;;;;70.10;22.77;;;;;;;;;;6149266;23;20104;-60
2023/01/19 04:49:20;;;;;;;78.32;23.10;;;;;;;;;;6149462;23;20018;-75
2023/01/19 04:51:47;;;;;;;73.30;23.80;;;;;;;;;;6148036;23;20021;-75
2023/01/19 04:54:21;;;;;;;84.28;26.45;;;;;;;;;;6150164;23;20028;-75
2023/01/19 04:56:48;;;;;;;74.40;24.05;;;;;;;;;;6147245;23;20029;-72
2023/01/19 04:59:22;;;;;;;84.55;24.83;;;;;;;;;;6148986;23;20100;-74
2023/01/19 05:01:50;;;;;;;65.03;21.25;;;;;;;;;;6148261;23;20064;-74
2023/01/19 05:04:17;;;;;;;65.63;21.75;;;;;;;;;;6147271;23;20057;-61
2023/01/19 05:06:50;;;;;;;59.50;22.40;;;;;;;;;;6148527;23;20032;-61
2023/01/19 05:09:17;;;;;;;64.65;22.13;;;;;;;;;;6149782;23;20045;-70
2023/01/19 05:11:45;;;;;;;74.70;22.63;;;;;;;;;;6148916;23;20806;-70
2023/01/19 05:14:18;;;;;;;59.97;21.33;;;;;;;;;;6148830;23;20124;-69
2023/01/19 05:16:45;;;;;;;59.97;22.33;;;;;;;;;;6147547;23;20026;-70
2023/01/19 05:19:26;;;;;;;62.78;23.20;;;;;;;;;;6146019;23;20049;-69
2023/01/19 05:21:53;;;;;;;70.32;22.65;;;;;;;;;;6148336;23;20025;-69
2023/01/19 05:24:27;;;;;;;56.30;22.13;;;;;;;;;;6145930;23;20060;-48
2023/01/19 05:26:55;;;;;;;67.75;21.42;;;;;;;;;;6122218;23;20057;-61
2023/01/19 05:29:22;;;;;;;67.13;21.40;;;;;;;;;;6150388;23;20097;-60
2023/01/19 05:31:55;;;;;;;56.15;20.05;;;;;;;;;;6148264;23;20072;-60
2023/01/19 05:34:22;;;;;;;55.90;19.75;;;;;;;;;;6146488;23;20121;-61
2023/01/19 05:36:56;;;;;;;54.45;19.17;;;;;;;;;;6148583;23;20530;-60
2023/01/19 05:39:25;;;;;;;64.07;20.15;;;;;;;;;;6147533;23;20538;-61
2023/01/19 05:41:52;;;;;;;59.25;20.13;;;;;;;;;;6145568;23;20053;-61
2023/01/19 05:44:26;;;;;;;67.78;21.80;;;;;;;;;;6144645;23;20096;-61
2023/01/19 05:46:53;;;;;;;60.45;20.17;;;;;;;;;;6141736;23;20366;-60
2023/01/19 05:49:27;;;;;;;57.97;20.02;;;;;;;;;;6146204;23;20404;-62
2023/01/19 05:51:54;;;;;;;59.55;19.92;;;;;;;;;;6145516;23;20065;-61
2023/01/19 05:54:22;;;;;;;50.30;18.85;;;;;;;;;;6145929;23;20563;-61
2023/01/19 05:56:57;;;;;;;48.67;17.10;;;;;;;;;;6148497;23;20021;-61
2023/01/19 05:59:24;;;;;;;56.97;19.98;;;;;;;;;;6149155;23;20025;-60
2023/01/19 06:01:58;;;;;;;58.80;19.83;;;;;;;;;;6147039;23;20237;-61
2023/01/19 06:04:26;;;;;;;;;;;;;;;;;;6149365;23;20133;-74
2023/01/19 06:06:53;;;;;;;56.25;19.45;;;;;;;;;;6148624;23;19983;-73
2023/01/19 06:09:26;;;;;;;54.50;18.67;;;;;;;;;;6148288;23;20113;-73
2023/01/19 06:11:55;;;;;;;54.78;20.42;;;;;;;;;;6147962;23;20770;-73
2023/01/19 06:14:31;;;;;;;51.20;20.23;;;;;;;;;;6148769;23;20027;-73
2023/01/19 06:17:05;;;;;;;71.30;24.45;;;;;;;;;;6146534;23;20088;-73
2023/01/19 06:19:46;;;;;;;66.00;22.38;;;;;;;;;;6147994;23;20036;-70
2023/01/19 06:22:13;;;;;;;69.25;21.63;;;;;;;;;;6148130;23;20025;-74
2023/01/19 06:24:47;;;;;;;85.25;23.60;;;;;;;;;;6148063;23;20101;-74
2023/01/19 06:27:21;;;;;;;78.43;22.80;;;;;;;;;;6147820;23;20057;-74
2023/01/19 06:29:48;;;;;;;79.00;21.67;;;;;;;;;;6147657;23;20036;-74
2023/01/19 06:32:16;;;;;;;61.45;19.55;;;;;;;;;;6147974;23;20036;-74
2023/01/19 06:34:49;;;;;;;66.22;21.15;;;;;;;;;;6148140;23;20022;-74
2023/01/19 06:37:20;;;;;;;74.47;19.67;;;;;;;;;;6148916;23;20021;-60
2023/01/19 06:39:53;;;;;;;77.28;21.80;;;;;;;;;;6148307;23;20061;-76
2023/01/19 06:42:20;;;;;;;70.30;20.95;;;;;;;;;;6149053;23;20021;-76
2023/01/19 06:44:48;;;;;;;73.35;20.95;;;;;;;;;;6148611;23;20101;-74
2023/01/19 06:47:21;;;;;;;58.90;20.10;;;;;;;;;;6147258;23;20558;-76
2023/01/19 06:49:48;;;;;;;;;;;;;;;;;;6147544;23;20538;-75
2023/01/19 06:52:22;;;;;;;60.70;19.75;;;;;;;;;;6149147;23;19963;-75
2023/01/19 06:54:49;;;;;;;75.07;21.70;;;;;;;;;;6147712;23;20131;-60
2023/01/19 06:57:17;;;;;;;59.58;19.30;;;;;;;;;;6147699;23;20501;-48
2023/01/19 06:59:51;;;;;;;62.97;18.27;;;;;;;;;;6147845;23;20538;-53
2023/01/19 07:02:21;;;;;;;67.43;19.25;;;;;;;;;;6147497;23;20101;-56
2023/01/19 07:04:56;;;;;;;62.73;19.57;;;;;;;;;;6148505;23;20057;-52
2023/01/19 07:07:23;;;;;;;58.55;20.50;;;;;;;;;;6148085;23;20028;-52
2023/01/19 07:09:50;;;;;;;57.15;18.70;;;;;;;;;;6146801;23;20036;-50
2023/01/19 07:12:24;;;;;;;53.72;18.70;;;;;;;;;;6146147;23;20029;-55
2023/01/19 07:14:51;;;;;;;49.10;17.58;;;;;;;;;;6147035;23;20025;-75
2023/01/19 07:17:32;;;;;;;54.55;18.63;;;;;;;;;;6146289;23;20424;-55
2023/01/19 07:20:06;;;;;;;61.25;18.75;;;;;;;;;;6148728;23;20025;-55
2023/01/19 07:22:42;;;;;;;51.70;16.05;;;;;;;;;;6147755;23;20022;-56
2023/01/19 07:25:09;;;;;;;46.20;15.82;;;;;;;;;;6148156;23;20021;-54
2023/01/19 07:27:43;;;;;;;53.13;17.45;;;;;;;;;;6147016;23;20452;-54
2023/01/19 07:30:17;;;;;;;51.53;17.73;;;;;;;;;;6147817;23;20021;-56
2023/01/19 07:32:44;;;;;;;54.63;17.08;;;;;;;;;;6147453;23;20483;-64
2023/01/19 07:35:20;;;;;;;45.67;15.85;;;;;;;;;;6149557;23;20057;-69
2023/01/19 07:37:47;;;;;;;45.50;15.63;;;;;;;;;;6147768;23;20033;-69
2023/01/19 07:40:14;;;;;;;45.45;14.70;;;;;;;;;;6148434;23;20052;-68
2023/01/19 07:42:50;;;;;;;42.88;14.65;;;;;;;;;;6147952;23;20037;-69
2023/01/19 07:45:19;;;;;;;41.33;15.00;;;;;;;;;;6147431;23;20029;-69
2023/01/19 07:47:54;;;;;;;40.60;14.60;;;;;;;;;;6147622;23;20033;-69
2023/01/19 07:50:24;;;;;;;41.70;14.25;;;;;;;;;;6148685;23;20416;-61
2023/01/19 07:52:52;;;;;;;37.95;12.88;;;;;;;;;;6147309;23;20025;-69
2023/01/19 07:55:27;;;;;;;45.35;14.57;;;;;;;;;;6147809;23;20104;-68
2023/01/19 07:57:54;;;;;;;39.17;13.90;;;;;;;;;;6147045;23;20021;-69
2023/01/19 08:00:27;;;;;;;39.50;12.45;;;;;;;;;;6147433;23;20092;-67
2023/01/19 08:02:58;;;;;;;39.28;14.15;;;;;;;;;;6147743;23;20137;-67
2023/01/19 08:05:28;;;;;;;36.17;13.93;;;;;;;;;;6149110;23;20021;-67
2023/01/19 08:08:02;;;;;;;35.70;13.00;;;;;;;;;;6146629;23;20808;-63
2023/01/19 08:10:30;;;;;;;37.70;13.45;;;;;;;;;;6148459;23;20022;-51
2023/01/19 08:13:03;;;;;;;36.30;14.45;;;;;;;;;;6146903;23;20359;-73
2023/01/19 08:15:30;;;;;;;33.95;14.73;;;;;;;;;;6147149;23;20100;-74
2023/01/19 08:18:13;;;;;;;34.75;13.93;;;;;;;;;;6147073;23;20025;-72
2023/01/19 08:20:40;;;;;;;41.38;13.25;;;;;;;;;;6147790;23;20080;-72
2023/01/19 08:23:16;;;;;;;46.67;15.25;;;;;;;;;;6147105;23;20025;-72
2023/01/19 08:25:44;;;;;;;42.22;14.70;;;;;;;;;;6147758;23;20025;-74
2023/01/19 08:28:13;;;;;;;43.28;14.63;;;;;;;;;;6147381;23;20076;-62
2023/01/19 08:30:53;;;;;;;33.00;14.73;;;;;;;;;;6146233;23;20108;-50
2023/01/19 08:33:24;;;;;;;38.90;15.27;;;;;;;;;;6147377;23;20025;-48
2023/01/19 08:35:58;;;;;;;37.97;15.63;;;;;;;;;;6148996;23;20021;-51
2023/01/19 08:38:25;;;;;;;37.60;15.13;;;;;;;;;;6147699;23;20053;-49
2023/01/19 08:40:59;;;;;;;43.95;16.17;;;;;;;;;;6148809;23;20104;-51
2023/01/19 08:43:26;;;;;;;35.88;14.35;;;;;;;;;;6148652;23;20398;-50
2023/01/19 08:45:55;;;;;;;49.92;15.48;;;;;;;;;;6149294;23;20096;-53
2023/01/19 08:48:28;;;;;;;37.92;15.13;;;;;;;;;;6148859;23;20572;-44
2023/01/19 08:50:56;;;;;;;39.22;14.27;;;;;;;;;;6150723;23;20100;-46
2023/01/19 08:53:29;;;;;;;40.72;15.05;;;;;;;;;;6149814;23;20053;-47
2023/01/19 08:55:59;;;;;;;35.92;14.52;;;;;;;;;;6149660;23;20045;-46
2023/01/19 08:58:27;;;;;;;39.33;14.55;;;;;;;;;;6148565;23;20029;-50
2023/01/19 09:01:00;;;;;;;45.08;13.82;;;;;;;;;;6149326;23;20120;-49
2023/01/19 09:03:30;;;;;;;41.65;14.77;;;;;;;;;;6149193;23;20033;-72
2023/01/19 09:06:07;;;;;;;40.17;11.45;;;;;;;;;;6149525;23;20478;-68
2023/01/19 09:08:34;;;;;;;30.42;11.48;;;;;;;;;;6149439;23;20052;-45
2023/01/19 09:11:11;;;;;;;27.23;10.38;;;;;;;;;;6146864;23;20055;-46
2023/01/19 09:13:39;;;;;;;23.20;10.20;;;;;;;;;;6148666;23;20633;-46
2023/01/19 09:16:06;;;;;;;21.70;9.02;;;;;;;;;;6148783;23;20104;-48
2023/01/19 09:18:47;;;;;;;25.20;9.10;;;;;;;;;;6148164;23;20084;-48
2023/01/19 09:21:14;;;;;;;22.92;8.93;;;;;;;;;;6148988;23;20056;-47
2023/01/19 09:23:48;;;;;;;23.77;8.88;;;;;;;;;;6149682;23;20025;-52
2023/01/19 09:26:16;;;;;;;23.60;9.23;;;;;;;;;;6149076;23;20028;-63
2023/01/19 09:28:43;;;;;;;28.40;9.02;;;;;;;;;;6149048;23;20021;-63
2023/01/19 09:31:16;;;;;;;20.55;8.20;;;;;;;;;;6147565;23;20116;-63
2023/01/19 09:33:44;;;;;;;22.10;9.30;;;;;;;;;;6148462;23;20026;-63
2023/01/19 09:36:17;;;;;;;19.85;8.65;;;;;;;;;;6148030;23;20109;-63
2023/01/19 09:38:44;;;;;;;24.15;9.85;;;;;;;;;;6148621;23;20032;-64
2023/01/19 09:41:16;;;;;;;21.83;7.38;;;;;;;;;;6149779;23;20376;-72
2023/01/19 09:43:54;;;;;;;19.88;8.55;;;;;;;;;;6148873;23;20036;-69
2023/01/19 09:46:27;;;;;;;24.52;9.00;;;;;;;;;;6148780;23;20096;-68
2023/01/19 09:49:19;;;;;;;25.85;8.43;;;;;;;;;;6147951;23;20475;-68
2023/01/19 09:51:48;;;;;;;20.63;8.95;;;;;;;;;;6148002;23;20075;-69
2023/01/19 09:54:28;;;;;;;27.48;9.52;;;;;;;;;;6148895;23;20079;-70
2023/01/19 09:56:55;;;;;;;23.92;8.65;;;;;;;;;;6149612;23;20021;-70
2023/01/19 09:59:30;;;;;;;28.70;9.70;;;;;;;;;;6124433;23;20021;-56
2023/01/19 10:02:16;;;;;;;23.95;8.63;;;;;;;;;;6147269;23;20109;-59
2023/01/19 10:04:59;;;;;;;24.67;8.40;;;;;;;;;;6148637;23;20021;-59
2023/01/19 10:07:28;;;;;;;24.88;9.38;;;;;;;;;;6148318;23;20021;-59
2023/01/19 10:10:06;;;;;;;15.65;7.53;;;;;;;;;;6148899;23;20024;-59
2023/01/19 10:12:49;;;;;;;21.67;8.27;;;;;;;;;;6147960;23;20100;-59
2023/01/19 10:15:32;;;;;;;25.00;8.85;;;;;;;;;;6125169;23;20104;-59
2023/01/19 10:18:34;;;;;;;49.70;8.40;;;;;;;;;;6148313;23;20511;-59
2023/01/19 10:21:15;;;;;;;21.50;8.23;;;;;;;;;;6148490;23;20720;-59
2023/01/19 10:23:55;;;;;;;14.48;6.93;;;;;;;;;;6148442;23;20064;-59
2023/01/19 10:26:39;;;;;;;18.90;7.10;;;;;;;;;;6148545;23;20029;-59
2023/01/19 10:29:37;;;;;;;18.75;7.85;;;;;;;;;;6147604;23;20060;-59
2023/01/19 10:32:07;;;;;;;18.65;7.70;;;;;;;;;;6148587;23;20021;-59
2023/01/19 10:34:41;;;;;;;20.20;7.57;;;;;;;;;;6147173;23;20025;-59
2023/01/19 10:37:19;;;;;;;14.60;5.53;;;;;;;;;;6147675;23;20533;-51
2023/01/19 10:39:54;;;;;;;14.07;5.97;;;;;;;;;;6147566;23;20053;-48
2023/01/19 10:42:29;;;;;;;14.07;7.85;;;;;;;;;;6147779;23;20061;-46
2023/01/19 10:45:03;;;;;;;12.40;6.85;;;;;;;;;;6149625;23;20057;-48
2023/01/19 10:47:39;;;;;;;22.05;6.57;;;;;;;;;;6148086;23;20096;-48
2023/01/19 10:50:22;;;;;;;16.08;5.78;;;;;;;;;;6148111;23;20475;-44
2023/01/19 10:52:58;;;;;;;18.25;5.82;;;;;;;;;;6147408;23;20026;-47
2023/01/19 10:55:30;;;;;;;12.25;6.07;;;;;;;;;;6149091;23;20053;-70
2023/01/19 10:58:04;;;;;;;14.23;4.93;;;;;;;;;;6146881;23;20029;-70
2023/01/19 11:00:33;;;;;;;15.93;5.80;;;;;;;;;;6148068;23;20024;-69
2023/01/19 11:03:01;;;;;;;15.07;6.82;;;;;;;;;;6147824;23;20364;-69
2023/01/19 11:05:35;;;;;;;14.00;6.07;;;;;;;;;;6147737;23;20026;-69
2023/01/19 11:08:20;;;;;;;16.00;5.88;;;;;;;;;;6147062;23;20049;-69
2023/01/19 11:10:58;;;;;;;15.93;6.68;;;;;;;;;;6148195;23;20097;-69
2023/01/19 11:13:25;;;;;;;19.13;6.95;;;;;;;;;;6146736;23;20060;-70
2023/01/19 11:16:03;;;;;;;18.88;7.35;;;;;;;;;;6146965;23;20029;-68
2023/01/19 11:18:46;;;;;;;8.85;5.63;;;;;;;;;;6147416;23;20029;-69
2023/01/19 11:21:14;;;;;;;17.85;7.00;;;;;;;;;;6148005;23;20494;-68
2023/01/19 11:23:50;;;;;;;13.05;6.95;;;;;;;;;;6147507;23;20104;-69
2023/01/19 11:26:34;;;;;;;22.55;8.35;;;;;;;;;;6148952;23;20557;-69
2023/01/19 11:29:16;;;;;;;16.50;8.63;;;;;;;;;;6147515;23;20061;-68
2023/01/19 11:31:43;;;;;;;20.48;7.90;;;;;;;;;;6146055;23;20052;-53
2023/01/19 11:34:25;;;;;;;22.13;8.05;;;;;;;;;;6147503;23;20652;-45
2023/01/19 11:36:57;;;;;;;21.50;8.75;;;;;;;;;;6147554;23;20108;-47
2023/01/19 11:39:45;;;;;;;18.02;8.43;;;;;;;;;;6148397;23;20104;-47
2023/01/19 11:42:13;;;;;;;24.80;8.05;;;;;;;;;;6148780;23;20111;-49
2023/01/19 11:44:57;;;;;;;24.75;8.65;;;;;;;;;;6145965;23;20080;-50
2023/01/19 11:47:44;;;;;;;21.48;9.10;;;;;;;;;;6148473;23;20025;-51
2023/01/19 11:50:28;;;;;;;23.20;8.40;;;;;;;;;;6147703;23;20021;-60
2023/01/19 11:53:00;;;;;;;15.48;8.05;;;;;;;;;;6147671;23;20724;-60
2023/01/19 11:55:41;;;;;;;18.25;8.45;;;;;;;;;;6147867;23;20055;-60
2023/01/19 11:58:12;;;;;;;20.10;9.45;;;;;;;;;;6146295;23;20064;-61
2023/01/19 12:01:05;;;;;;;23.63;9.27;;;;;;;;;;6148020;23;20024;-61
2023/01/19 12:03:33;;;;;;;21.60;9.07;;;;;;;;;;6147259;23;20470;-60
2023/01/19 12:06:09;;;;;;;23.10;9.00;;;;;;;;;;6147853;23;20092;-60
2023/01/19 12:08:42;;;;;;;28.90;8.90;;;;;;;;;;6147343;23;20364;-69
2023/01/19 12:11:20;;;;;;;17.60;8.68;;;;;;;;;;6148057;23;20022;-60
2023/01/19 12:13:48;;;;;;;17.73;9.30;;;;;;;;;;6147183;23;20104;-60
2023/01/19 12:16:27;;;;;;;17.92;9.18;;;;;;;;;;6149896;23;20092;-60
2023/01/19 12:19:02;;;;;;;23.52;9.20;;;;;;;;;;6148175;23;20352;-58
2023/01/19 12:21:44;;;;;;;21.20;9.48;;;;;;;;;;6148797;23;20467;-60
2023/01/19 12:24:15;;;;;;;27.15;10.50;;;;;;;;;;6150721;23;20104;-60
2023/01/19 12:26:48;;;;;;;16.08;7.88;;;;;;;;;;6149240;23;20503;-52
2023/01/19 12:29:24;;;;;;;22.00;10.52;;;;;;;;;;6150960;23;20670;-60
2023/01/19 12:32:10;;;;;;;23.90;10.57;;;;;;;;;;6148910;23;20677;-59
2023/01/19 12:34:45;;;;;;;26.83;10.38;;;;;;;;;;6148558;23;20039;-60
2023/01/19 12:37:36;;;;;;;26.23;10.40;;;;;;;;;;6150347;23;20084;-59
2023/01/19 12:40:09;;;;;;;26.67;10.27;;;;;;;;;;6141749;23;20026;-60
2023/01/19 12:42:43;;;;;;;21.38;9.75;;;;;;;;;;6149334;23;20069;-60
2023/01/19 12:45:21;;;;;;;21.40;10.85;;;;;;;;;;6149480;23;20108;-62
2023/01/19 12:47:52;;;;;;;21.05;10.93;;;;;;;;;;6147535;23;20506;-72
2023/01/19 12:50:28;;;;;;;21.42;10.38;;;;;;;;;;6149182;23;20251;-73
2023/01/19 12:52:58;;;;;;;24.63;10.63;;;;;;;;;;6148361;23;20750;-73
2023/01/19 12:55:36;;;;;;;21.45;11.15;;;;;;;;;;6149617;23;20101;-73
2023/01/19 12:58:06;;;;;;;22.73;10.45;;;;;;;;;;6148048;23;20476;-72
2023/01/19 13:00:41;;;;;;;23.40;11.55;;;;;;;;;;6149889;23;20524;-72
2023/01/19 13:03:18;;;;;;;25.17;11.73;;;;;;;;;;6149994;23;20049;-49
2023/01/19 13:05:56;;;;;;;27.45;12.90;;;;;;;;;;6148705;23;20029;-49
2023/01/19 13:08:24;;;;;;;26.42;12.45;;;;;;;;;;6148989;23;20092;-46
2023/01/19 13:11:11;;;;;;;26.27;11.88;;;;;;;;;;6147753;23;20741;-47
2023/01/19 13:14:04;;;;;;;30.50;12.75;;;;;;;;;;6148235;23;20580;-47
2023/01/19 13:16:34;;;;;;;27.40;12.60;;;;;;;;;;6149026;23;20050;-48
2023/01/19 13:19:18;;;;;;;24.70;12.80;;;;;;;;;;6147562;23;20844;-48
2023/01/19 13:21:47;;;;;;;27.33;13.32;;;;;;;;;;6150370;23;20018;-69
2023/01/19 13:24:22;;;;;;;32.40;13.88;;;;;;;;;;6150151;23;20112;-72
2023/01/19 13:26:49;;;;;;;30.70;14.68;;;;;;;;;;6147648;23;20102;-73
2023/01/19 13:29:26;;;;;;;31.48;13.88;;;;;;;;;;6149015;23;20108;-73
2023/01/19 13:32:01;;;;;;;32.35;14.55;;;;;;;;;;6148350;23;20018;-72
2023/01/19 13:34:39;;;;;;;31.10;14.35;;;;;;;;;;6148230;23;20100;-72
2023/01/19 13:37:21;;;;;;;29.13;13.00;;;;;;;;;;6148472;23;20064;-71
2023/01/19 13:39:49;;;;;;;29.52;13.75;;;;;;;;;;6149741;23;20100;-49
2023/01/19 13:42:23;;;;;;;30.85;14.48;;;;;;;;;;6148845;23;20581;-62
2023/01/19 13:44:52;;;;;;;31.45;13.35;;;;;;;;;;6147562;23;20288;-65
2023/01/19 13:47:30;;;;;;;29.08;13.52;;;;;;;;;;6147520;23;20029;-62
2023/01/19 13:49:58;;;;;;;26.50;13.88;;;;;;;;;;6148293;23;20367;-62
2023/01/19 13:52:27;;;;;;;38.67;15.18;;;;;;;;;;6148711;23;20025;-62
2023/01/19 13:55:01;;;;;;;36.65;13.23;;;;;;;;;;6148387;23;20519;-62
2023/01/19 13:57:40;;;;;;;28.75;13.05;;;;;;;;;;6148361;23;20101;-51
2023/01/19 14:00:21;;;;;;;27.05;11.52;;;;;;;;;;6149076;23;20024;-59
2023/01/19 14:02:58;;;;;;;29.27;13.50;;;;;;;;;;6147127;23;20033;-60
2023/01/19 14:05:25;;;;;;;30.40;13.38;;;;;;;;;;6149537;23;20101;-60
2023/01/19 14:08:11;;;;;;;26.38;13.30;;;;;;;;;;6147963;23;20487;-60
2023/01/19 14:10:39;;;;;;;33.75;13.88;;;;;;;;;;6121106;23;20029;-60
2023/01/19 14:13:15;;;;;;;35.63;14.98;;;;;;;;;;6148633;23;20064;-59
2023/01/19 14:15:43;;;;;;;38.42;15.52;;;;;;;;;;6148885;23;20025;-60
2023/01/19 14:18:14;;;;;;;31.60;14.60;;;;;;;;;;6146936;23;20116;-73
2023/01/19 14:20:53;;;;;;;30.08;14.27;;;;;;;;;;6148616;23;20022;-74
2023/01/19 14:23:35;;;;;;;26.67;13.40;;;;;;;;;;6146779;23;20108;-74
2023/01/19 14:26:28;;;;;;;28.08;13.27;;;;;;;;;;6148762;23;20030;-74
2023/01/19 14:29:07;;;;;;;35.97;14.52;;;;;;;;;;6147133;23;20104;-73
2023/01/19 14:31:41;;;;;;;32.83;14.23;;;;;;;;;;6148915;23;20093;-73
2023/01/19 14:34:29;;;;;;;27.52;12.65;;;;;;;;;;6122757;23;20028;-59
2023/01/19 14:36:57;;;;;;;25.65;13.27;;;;;;;;;;6148725;23;20025;-50
2023/01/19 14:39:32;;;;;;;25.83;13.02;;;;;;;;;;6148281;23;20101;-48
2023/01/19 14:42:02;;;;;;;24.33;12.32;;;;;;;;;;6148042;23;20411;-46
2023/01/19 14:44:31;;;;;;;25.05;11.60;;;;;;;;;;6148497;23;20076;-47
2023/01/19 14:47:05;;;;;;;28.70;13.63;;;;;;;;;;6146733;23;20128;-47
2023/01/19 14:49:41;;;;;;;24.08;12.57;;;;;;;;;;6147109;23;20057;-49
2023/01/19 14:52:24;;;;;;;23.15;12.25;;;;;;;;;;6148942;23;20026;-46
2023/01/19 14:54:51;;;;;;;26.85;13.30;;;;;;;;;;6148139;23;20025;-48
2023/01/19 14:57:25;;;;;;;27.65;13.52;;;;;;;;;;6148080;23;20480;-69
2023/01/19 14:59:54;;;;;;;27.80;12.90;;;;;;;;;;6147956;23;20081;-68
2023/01/19 15:02:28;;;;;;;24.98;13.18;;;;;;;;;;6147416;23;20024;-69
2023/01/19 15:04:56;;;;;;;29.80;13.75;;;;;;;;;;6147057;23;20029;-69